Time;durP1;ratioP1;P1;durP2;ratioP2;P2;SDS_P1;SDS_P2;PMS_P1;PMS_P2;Temp;Humidity;BMP_temperature;BMP_pressure;BME280_temperature;BME280_humidity;BME280_pressure;Samples;Min_cycle;Max_cycle;Signal;HPM_P1;HPM_P2
2021/12/15 00:00:10;;;;;;;26.27;18.80;;;7.70;99.90;;;;;;5081947;28;20243;-58
2021/12/15 00:02:39;;;;;;;37.33;22.33;;;7.70;99.90;;;;;;5074790;28;20256;-56
2021/12/15 00:05:08;;;;;;;32.10;20.10;;;7.70;99.90;;;;;;5075253;28;20320;-54
2021/12/15 00:07:37;;;;;;;28.97;19.43;;;7.70;99.90;;;;;;5074262;28;20714;-54
2021/12/15 00:10:06;;;;;;;31.83;20.27;;;7.80;99.90;;;;;;5074757;28;20227;-54
2021/12/15 00:12:34;;;;;;;33.73;20.63;;;7.80;99.90;;;;;;5074389;28;20341;-54
2021/12/15 00:15:03;;;;;;;34.07;21.83;;;7.70;99.90;;;;;;5074934;28;20303;-56
2021/12/15 00:17:32;;;;;;;33.03;21.87;;;7.70;99.90;;;;;;5074625;28;20293;-54
2021/12/15 00:20:00;;;;;;;29.53;20.10;;;7.70;99.90;;;;;;5074868;28;20318;-61
2021/12/15 00:22:28;;;;;;;33.73;21.50;;;7.70;99.90;;;;;;5074419;28;20312;-55
2021/12/15 00:24:56;;;;;;;36.00;22.60;;;7.70;99.90;;;;;;5074332;28;20230;-54
2021/12/15 00:27:24;;;;;;;42.00;24.17;;;7.80;99.90;;;;;;5074172;28;20699;-54
2021/12/15 00:29:52;;;;;;;36.37;22.87;;;7.70;99.90;;;;;;5074439;28;20255;-55
2021/12/15 00:32:20;;;;;;;44.37;26.13;;;7.70;99.90;;;;;;5074373;28;20354;-54
2021/12/15 00:34:51;;;;;;;39.40;25.00;;;7.70;99.90;;;;;;5074116;28;20232;-54
2021/12/15 00:37:19;;;;;;;33.73;23.07;;;7.70;99.90;;;;;;5073786;28;20286;-54
2021/12/15 00:39:47;;;;;;;43.20;24.80;;;7.70;99.90;;;;;;5074137;28;20693;-55
2021/12/15 00:42:15;;;;;;;35.03;23.17;;;7.70;99.90;;;;;;5074137;28;20362;-55
2021/12/15 00:44:44;;;;;;;41.43;24.97;;;7.70;99.90;;;;;;5074028;28;20213;-54
2021/12/15 00:47:12;;;;;;;44.90;25.70;;;7.70;99.90;;;;;;5082480;28;20243;-56
2021/12/15 00:49:41;;;;;;;46.53;25.93;;;7.70;99.90;;;;;;5086243;28;20699;-56
2021/12/15 00:52:12;;;;;;;44.20;25.30;;;7.70;99.90;;;;;;5076553;28;20283;-56
2021/12/15 00:54:40;;;;;;;47.07;26.73;;;7.70;99.90;;;;;;5094739;28;20204;-56
2021/12/15 00:57:08;;;;;;;44.03;24.80;;;7.60;99.90;;;;;;5093983;28;20684;-55
2021/12/15 00:59:37;;;;;;;61.50;28.07;;;7.60;99.90;;;;;;5075993;28;20260;-52
2021/12/15 01:02:07;;;;;;;47.30;25.93;;;7.60;99.90;;;;;;5053216;28;20253;-55
2021/12/15 01:04:36;;;;;;;41.93;24.93;;;7.60;99.90;;;;;;5072139;28;20221;-54
2021/12/15 01:07:08;;;;;;;53.40;27.57;;;7.60;99.90;;;;;;5073228;28;20681;-55
2021/12/15 01:09:43;;;;;;;50.93;27.80;;;7.60;99.90;;;;;;5073853;28;20244;-54
2021/12/15 01:12:23;;;;;;;42.03;25.57;;;7.60;99.90;;;;;;5073679;28;20271;-54
2021/12/15 01:20:32;;;;;;;50.33;27.90;;;7.70;99.90;;;;;;5073515;28;20208;-54
2021/12/15 01:23:04;;;;;;;73.07;32.63;;;7.60;99.90;;;;;;5073290;28;20252;-58
2021/12/15 01:25:37;;;;;;;54.47;29.80;;;7.60;99.90;;;;;;5073086;28;20567;-53
2021/12/15 01:28:06;;;;;;;56.57;30.37;;;7.60;99.90;;;;;;5086183;28;20239;-54
2021/12/15 01:30:38;;;;;;;53.70;30.17;;;7.60;99.90;;;;;;5075995;28;20232;-54
2021/12/15 01:33:06;;;;;;;69.47;33.67;;;7.60;99.90;;;;;;5072647;28;20663;-55
2021/12/15 01:35:37;;;;;;;87.80;37.30;;;7.50;99.90;;;;;;5073040;28;20704;-54
2021/12/15 01:38:05;;;;;;;66.63;32.80;;;7.50;99.90;;;;;;5090721;28;20235;-54
2021/12/15 01:40:40;;;;;;;64.43;32.93;;;7.50;99.90;;;;;;5088219;28;20310;-54
2021/12/15 01:43:15;;;;;;;96.73;39.97;;;7.50;99.90;;;;;;5073015;28;20747;-55
2021/12/15 01:48:30;;;;;;;75.13;35.70;;;7.50;99.90;;;;;;5063166;28;20295;-54
2021/12/15 01:50:58;;;;;;;92.73;38.60;;;7.50;99.90;;;;;;5072341;28;20212;-56
2021/12/15 01:53:27;;;;;;;68.07;35.73;;;7.40;99.90;;;;;;5085552;28;20752;-55
2021/12/15 01:55:57;;;;;;;62.33;33.80;;;7.50;99.90;;;;;;5092829;28;20231;-52
2021/12/15 01:58:25;;;;;;;75.10;36.83;;;7.50;99.90;;;;;;5093270;28;20208;-54
2021/12/15 02:00:57;;;;;;;64.37;33.87;;;7.50;99.90;;;;;;5072423;28;20248;-54
2021/12/15 02:03:25;;;;;;;79.80;37.73;;;7.50;99.90;;;;;;5069257;28;20637;-54
2021/12/15 02:05:56;;;;;;;68.50;35.63;;;7.40;99.90;;;;;;5072519;28;20236;-54
2021/12/15 02:08:24;;;;;;;90.90;39.00;;;7.50;99.90;;;;;;5072621;28;20232;-54
2021/12/15 02:10:53;;;;;;;63.50;34.83;;;7.40;99.90;;;;;;5072095;28;20295;-55
2021/12/15 02:13:23;;;;;;;78.07;37.40;;;7.40;99.90;;;;;;5072471;28;20358;-55
2021/12/15 02:15:55;;;;;;;60.50;33.83;;;7.40;99.90;;;;;;5072366;28;20659;-54
2021/12/15 02:18:27;;;;;;;63.63;34.37;;;7.50;99.90;;;;;;5071979;28;20220;-53
2021/12/15 02:21:01;;;;;;;58.33;32.20;;;7.50;99.90;;;;;;5072290;28;20308;-55
2021/12/15 02:23:35;;;;;;;68.53;36.27;;;7.50;99.90;;;;;;5071779;28;20262;-54
2021/12/15 02:26:07;;;;;;;57.87;32.73;;;7.60;99.90;;;;;;5072339;28;20239;-54
2021/12/15 02:28:37;;;;;;;82.23;35.87;;;7.50;99.90;;;;;;5071974;28;20232;-54
2021/12/15 02:31:12;;;;;;;61.50;33.77;;;7.50;99.90;;;;;;5071683;28;20688;-54
2021/12/15 02:33:54;;;;;;;74.60;36.07;;;7.40;99.90;;;;;;5071744;28;20264;-54
2021/12/15 02:39:10;;;;;;;74.27;37.00;;;7.40;99.90;;;;;;5071812;28;20204;-55
2021/12/15 02:41:39;;;;;;;59.63;34.53;;;7.50;99.90;;;;;;5072420;28;20275;-53
2021/12/15 02:44:11;;;;;;;76.93;37.90;;;7.50;99.90;;;;;;5067894;28;20680;-55
2021/12/15 02:46:40;;;;;;;68.47;35.67;;;7.50;99.90;;;;;;5093653;28;20251;-53
2021/12/15 02:49:10;;;;;;;63.70;33.83;;;7.50;99.90;;;;;;5091357;28;20213;-54
2021/12/15 02:51:41;;;;;;;58.87;33.83;;;7.50;99.90;;;;;;5072797;28;20252;-54
2021/12/15 02:54:12;;;;;;;93.93;37.73;;;7.50;99.90;;;;;;5090969;28;20712;-55
2021/12/15 02:56:40;;;;;;;72.67;36.37;;;7.50;99.90;;;;;;5076031;28;20244;-55
2021/12/15 02:59:10;;;;;;;66.23;33.87;;;7.50;99.90;;;;;;5066051;28;20638;-54
2021/12/15 03:01:55;;;;;;;65.57;34.97;;;7.50;99.90;;;;;;5051210;28;20734;-55
2021/12/15 03:04:34;;;;;;;64.20;34.87;;;7.40;99.90;;;;;;5067914;28;20211;-55
2021/12/15 03:07:13;;;;;;;131.57;43.53;;;7.50;99.90;;;;;;5071601;28;20232;-54
2021/12/15 03:15:29;;;;;;;60.53;33.43;;;7.50;99.90;;;;;;5071665;28;20236;-55
2021/12/15 03:18:01;;;;;;;81.93;37.00;;;7.50;99.90;;;;;;5071650;28;20280;-54
2021/12/15 03:20:31;;;;;;;61.00;33.33;;;7.50;99.90;;;;;;5071635;28;20231;-53
2021/12/15 03:23:00;;;;;;;78.67;37.07;;;7.50;99.90;;;;;;5071063;28;20228;-55
2021/12/15 03:25:31;;;;;;;89.27;38.67;;;7.50;99.90;;;;;;5071118;28;20233;-55
2021/12/15 03:33:55;;;;;;;169.70;45.90;;;7.60;99.90;;;;;;5080255;28;20315;-55
2021/12/15 03:36:37;;;;;;;62.60;33.47;;;7.70;99.90;;;;;;5071005;28;20678;-54
2021/12/15 03:39:10;;;;;;;75.87;36.07;;;7.60;99.90;;;;;;5074629;28;20246;-55
2021/12/15 03:41:38;;;;;;;64.47;34.10;;;7.60;99.90;;;;;;5064102;28;21559;-56
2021/12/15 03:44:08;;;;;;;62.57;34.03;;;7.60;99.90;;;;;;5057381;28;20237;-56
2021/12/15 03:46:36;;;;;;;68.60;35.13;;;7.70;99.90;;;;;;5051455;28;20767;-54
2021/12/15 03:49:05;;;;;;;136.97;42.37;;;7.70;99.90;;;;;;5053128;28;20214;-54
2021/12/15 03:51:33;;;;;;;71.20;35.17;;;7.60;99.90;;;;;;5071047;28;20300;-55
2021/12/15 03:54:01;;;;;;;60.90;32.53;;;7.60;99.90;;;;;;5074578;28;20244;-54
2021/12/15 03:56:30;;;;;;;159.67;41.17;;;7.60;99.90;;;;;;5071113;28;20235;-54
2021/12/15 03:58:58;;;;;;;124.10;42.10;;;7.60;99.90;;;;;;5070472;28;20291;-53
2021/12/15 04:01:26;;;;;;;113.70;39.37;;;7.60;99.90;;;;;;5070971;28;20260;-54
2021/12/15 04:03:56;;;;;;;64.07;32.27;;;7.50;99.90;;;;;;5071184;28;20208;-54
2021/12/15 04:06:27;;;;;;;87.90;35.37;;;7.60;99.90;;;;;;5070501;28;20248;-54
2021/12/15 04:08:56;;;;;;;82.60;35.07;;;7.60;99.90;;;;;;5070892;28;20728;-56
2021/12/15 04:11:27;;;;;;;108.03;37.43;;;7.50;99.90;;;;;;5070750;28;20300;-55
2021/12/15 04:14:00;;;;;;;62.27;32.23;;;7.50;99.90;;;;;;5070844;28;20255;-54
2021/12/15 04:16:43;;;;;;;82.37;34.40;;;7.60;99.90;;;;;;5070716;28;20287;-60
2021/12/15 04:19:13;;;;;;;100.73;36.87;;;7.60;99.90;;;;;;5071029;28;20712;-55
2021/12/15 04:21:42;;;;;;;128.97;36.63;;;7.60;99.90;;;;;;5070668;28;20312;-55
2021/12/15 04:24:13;;;;;;;73.57;33.33;;;7.50;99.90;;;;;;5071217;28;20232;-55
2021/12/15 04:26:43;;;;;;;65.03;33.73;;;7.50;99.90;;;;;;5072468;28;20304;-54
2021/12/15 04:29:12;;;;;;;97.33;37.93;;;7.60;99.90;;;;;;5086769;28;20707;-54
2021/12/15 04:31:50;;;;;;;70.80;34.37;;;7.60;99.90;;;;;;5070348;28;20267;-56
2021/12/15 04:34:18;;;;;;;69.83;35.47;;;7.60;99.90;;;;;;5070839;28;20245;-55
2021/12/15 04:36:48;;;;;;;92.03;35.93;;;7.60;99.90;;;;;;5075989;28;20243;-55
2021/12/15 04:39:20;;;;;;;89.77;33.60;;;7.60;99.90;;;;;;5090824;28;20711;-54
2021/12/15 04:41:51;;;;;;;103.47;36.63;;;7.70;99.90;;;;;;5091038;28;20747;-54
2021/12/15 04:44:23;;;;;;;73.67;35.97;;;7.70;99.90;;;;;;5094088;28;20215;-54
2021/12/15 04:47:00;;;;;;;211.17;44.70;;;7.70;99.90;;;;;;5094288;28;20251;-55
2021/12/15 04:49:31;;;;;;;73.40;35.67;;;7.70;99.90;;;;;;5075748;28;20240;-54
2021/12/15 04:51:59;;;;;;;67.50;35.97;;;7.70;99.90;;;;;;5054550;28;20260;-56
2021/12/15 04:54:28;;;;;;;84.60;36.60;;;7.60;99.90;;;;;;5093895;28;20728;-55
2021/12/15 04:56:56;;;;;;;187.60;37.93;;;7.60;99.90;;;;;;5076760;28;20752;-54
2021/12/15 04:59:26;;;;;;;155.87;39.80;;;7.60;99.90;;;;;;5066109;28;20299;-55
2021/12/15 05:01:54;;;;;;;64.77;34.13;;;7.60;99.90;;;;;;5053890;28;20264;-55
2021/12/15 05:04:22;;;;;;;84.97;35.57;;;7.60;99.90;;;;;;5059781;28;20208;-55
2021/12/15 05:06:50;;;;;;;86.37;36.40;;;7.60;99.90;;;;;;5074160;28;20232;-55
2021/12/15 05:09:18;;;;;;;217.67;45.30;;;7.70;99.90;;;;;;5073499;28;20736;-54
2021/12/15 05:11:49;;;;;;;116.83;38.73;;;7.70;99.90;;;;;;5073882;28;20315;-54
2021/12/15 05:14:18;;;;;;;122.97;39.20;;;7.70;99.90;;;;;;5073400;28;20701;-55
2021/12/15 05:16:47;;;;;;;129.87;42.13;;;7.70;99.90;;;;;;5073622;28;20300;-55
2021/12/15 05:19:16;;;;;;;299.37;52.17;;;7.60;99.90;;;;;;5073793;28;20232;-54
2021/12/15 05:21:44;;;;;;;103.67;37.90;;;7.60;99.90;;;;;;5073433;28;20256;-54
2021/12/15 05:24:22;;;;;;;91.47;36.57;;;7.60;99.90;;;;;;5073427;28;20693;-55
2021/12/15 05:26:50;;;;;;;73.63;35.53;;;7.60;99.90;;;;;;5075726;28;20309;-55
2021/12/15 05:29:21;;;;;;;97.70;37.63;;;7.50;99.90;;;;;;5093785;28;20220;-55
2021/12/15 05:31:51;;;;;;;70.13;35.67;;;7.60;99.90;;;;;;5092411;28;20771;-54
2021/12/15 05:34:20;;;;;;;92.33;38.77;;;7.60;99.90;;;;;;5073375;28;20217;-54
2021/12/15 05:36:48;;;;;;;72.00;35.50;;;7.60;99.90;;;;;;5079124;28;20256;-55
2021/12/15 05:39:17;;;;;;;128.17;39.03;;;7.60;99.90;;;;;;5093642;28;20240;-55
2021/12/15 05:41:45;;;;;;;95.57;38.10;;;7.60;99.90;;;;;;5093338;28;20286;-54
2021/12/15 05:44:13;;;;;;;133.53;41.10;;;7.60;99.90;;;;;;5088043;28;20244;-55
2021/12/15 05:46:41;;;;;;;74.53;36.73;;;7.50;99.90;;;;;;5072332;28;20231;-53
2021/12/15 05:49:11;;;;;;;155.57;41.67;;;7.50;99.90;;;;;;5072882;28;20224;-54
2021/12/15 05:51:40;;;;;;;145.80;44.30;;;7.50;99.90;;;;;;5072447;28;20677;-53
2021/12/15 05:54:10;;;;;;;116.67;40.53;;;7.50;99.90;;;;;;5090422;28;20239;-54
2021/12/15 05:56:41;;;;;;;68.23;36.57;;;7.60;99.90;;;;;;5093119;28;20311;-53
2021/12/15 05:59:09;;;;;;;75.47;36.50;;;7.60;99.90;;;;;;5087267;28;20201;-54
2021/12/15 06:01:39;;;;;;;72.83;35.20;;;7.60;99.90;;;;;;5072106;28;20208;-55
2021/12/15 06:04:07;;;;;;;70.50;36.60;;;7.60;99.90;;;;;;5072381;28;20288;-54
2021/12/15 06:06:37;;;;;;;65.60;34.37;;;7.60;99.90;;;;;;5072694;28;20240;-54
2021/12/15 06:09:07;;;;;;;63.07;34.73;;;7.70;99.90;;;;;;5073032;28;20205;-54
2021/12/15 06:11:36;;;;;;;123.37;42.70;;;7.70;99.90;;;;;;5072659;28;20209;-54
2021/12/15 06:14:04;;;;;;;83.23;37.57;;;7.60;99.90;;;;;;5072370;28;20232;-55
2021/12/15 06:16:33;;;;;;;114.67;42.67;;;7.60;99.90;;;;;;5072195;28;20308;-54
2021/12/15 06:19:02;;;;;;;87.30;39.67;;;7.60;99.90;;;;;;5072292;28;20247;-55
2021/12/15 06:21:31;;;;;;;90.13;37.23;;;7.70;99.90;;;;;;5071935;28;20255;-54
2021/12/15 06:24:01;;;;;;;86.73;38.27;;;7.60;99.90;;;;;;5072419;28;20201;-54
2021/12/15 06:26:29;;;;;;;169.50;47.23;;;7.70;99.90;;;;;;5071950;28;20250;-55
2021/12/15 06:28:57;;;;;;;134.17;44.50;;;7.70;99.90;;;;;;5060244;28;20247;-54
2021/12/15 06:31:25;;;;;;;80.63;37.50;;;7.70;99.90;;;;;;5071946;28;20284;-54
2021/12/15 06:33:53;;;;;;;70.17;34.90;;;7.70;99.90;;;;;;5072117;28;20208;-54
2021/12/15 06:36:21;;;;;;;65.70;36.37;;;7.70;99.90;;;;;;5071333;28;20249;-53
2021/12/15 06:38:52;;;;;;;106.00;38.17;;;7.70;99.90;;;;;;5072334;28;20268;-56
2021/12/15 06:41:23;;;;;;;68.23;35.70;;;7.70;99.90;;;;;;5071049;28;20212;-54
2021/12/15 06:43:55;;;;;;;70.40;35.63;;;7.60;99.90;;;;;;5066600;28;20240;-54
2021/12/15 06:58:10;;;;;;;94.30;37.97;;;7.60;99.90;;;;;;5080155;28;20244;-54
2021/12/15 07:00:23;;;;;;;94.10;38.27;;;7.60;99.90;;;;;;5056178;28;20292;-55
2021/12/15 07:02:52;;;;;;;124.93;41.37;;;7.60;99.90;;;;;;5051434;28;20264;-55
2021/12/15 07:05:21;;;;;;;154.13;45.47;;;7.60;99.90;;;;;;5051313;28;20202;-55
2021/12/15 07:07:50;;;;;;;112.73;40.87;;;7.60;99.90;;;;;;5051556;28;20256;-56
2021/12/15 07:10:21;;;;;;;93.00;40.50;;;7.60;99.90;;;;;;5080954;28;20276;-55
2021/12/15 07:12:51;;;;;;;119.90;41.40;;;7.60;99.90;;;;;;5091448;28;20798;-54
2021/12/15 07:15:19;;;;;;;78.97;39.00;;;7.60;99.90;;;;;;5074227;28;20248;-54
2021/12/15 07:17:51;;;;;;;72.67;39.70;;;7.60;99.90;;;;;;5071373;28;20237;-55
2021/12/15 07:20:36;;;;;;;72.23;36.43;;;7.60;99.90;;;;;;5071371;28;20203;-54
2021/12/15 07:23:06;;;;;;;87.17;39.83;;;7.60;99.90;;;;;;5071338;28;20257;-55
2021/12/15 07:25:36;;;;;;;71.90;35.23;;;7.60;99.90;;;;;;5071331;28;20232;-55
2021/12/15 07:28:06;;;;;;;95.50;38.70;;;7.60;99.90;;;;;;5084434;28;20284;-54
2021/12/15 07:30:37;;;;;;;97.80;40.43;;;7.60;99.90;;;;;;5091199;28;20243;-55
2021/12/15 07:33:06;;;;;;;135.20;43.50;;;7.60;99.90;;;;;;5084352;28;20216;-54
2021/12/15 07:35:36;;;;;;;128.97;48.53;;;7.60;99.90;;;;;;5070763;28;20303;-55
2021/12/15 07:38:04;;;;;;;72.83;35.40;;;7.60;99.90;;;;;;5070953;28;20246;-55
2021/12/15 07:40:34;;;;;;;74.53;35.87;;;7.60;99.90;;;;;;5070928;28;20239;-55
2021/12/15 07:43:10;;;;;;;124.00;41.67;;;7.60;99.90;;;;;;5071282;28;20279;-55
2021/12/15 07:45:41;;;;;;;121.63;40.47;;;7.60;99.90;;;;;;5070437;28;20239;-56
2021/12/15 07:48:11;;;;;;;106.83;37.70;;;7.60;99.90;;;;;;5071128;28;20205;-54
2021/12/15 07:50:42;;;;;;;76.97;35.93;;;7.60;99.90;;;;;;5070757;28;20696;-54
2021/12/15 07:53:10;;;;;;;101.87;37.47;;;7.60;99.90;;;;;;5074977;28;20228;-55
2021/12/15 07:55:39;;;;;;;148.50;40.57;;;7.60;99.90;;;;;;5070799;28;20689;-54
2021/12/15 07:58:10;;;;;;;315.93;49.33;;;7.60;99.90;;;;;;5070942;28;20212;-54
2021/12/15 08:00:40;;;;;;;96.67;36.80;;;7.60;99.90;;;;;;5053374;28;20244;-54
2021/12/15 08:03:09;;;;;;;119.10;35.47;;;7.60;99.90;;;;;;5050821;28;20232;-56
2021/12/15 08:05:38;;;;;;;221.00;43.97;;;7.60;99.90;;;;;;5063726;28;20295;-55
2021/12/15 08:08:07;;;;;;;145.33;39.00;;;7.60;99.90;;;;;;5077016;28;20308;-55
2021/12/15 08:10:36;;;;;;;145.97;37.60;;;7.60;99.90;;;;;;5089343;28;20311;-55
2021/12/15 08:13:05;;;;;;;357.10;49.47;;;7.60;99.90;;;;;;5090858;28;20716;-55
2021/12/15 08:15:34;;;;;;;96.73;35.20;;;7.60;99.90;;;;;;5082837;28;20243;-55
2021/12/15 08:18:02;;;;;;;152.73;40.43;;;7.60;99.90;;;;;;5093321;28;20290;-54
2021/12/15 08:20:33;;;;;;;170.63;36.23;;;7.60;99.90;;;;;;5078581;28;20229;-55
2021/12/15 08:23:01;;;;;;;218.00;39.63;;;7.70;99.90;;;;;;5066062;28;20317;-54
2021/12/15 08:25:31;;;;;;;135.33;36.57;;;7.60;99.90;;;;;;5074053;28;20231;-55
2021/12/15 08:28:00;;;;;;;240.97;41.40;;;7.60;99.90;;;;;;5077260;28;20254;-54
2021/12/15 08:30:31;;;;;;;107.40;35.87;;;7.60;99.90;;;;;;5074117;28;20673;-54
2021/12/15 08:33:05;;;;;;;358.30;44.77;;;7.60;99.90;;;;;;5074402;28;20251;-55
2021/12/15 08:35:36;;;;;;;281.73;45.63;;;7.60;99.90;;;;;;5061918;28;20670;-55
2021/12/15 08:38:05;;;;;;;199.63;41.40;;;7.60;99.90;;;;;;5085753;28;20676;-55
2021/12/15 08:40:33;;;;;;;112.70;36.17;;;7.60;99.90;;;;;;5089108;28;20204;-54
2021/12/15 08:43:02;;;;;;;62.90;32.13;;;7.60;99.90;;;;;;5074384;28;20732;-55
2021/12/15 08:45:31;;;;;;;170.63;39.20;;;7.70;99.90;;;;;;5073848;28;20268;-55
2021/12/15 08:48:04;;;;;;;100.00;39.00;;;7.70;99.90;;;;;;5057125;28;20209;-55
2021/12/15 08:50:35;;;;;;;151.10;38.67;;;7.70;99.90;;;;;;5069630;28;20232;-54
2021/12/15 08:53:05;;;;;;;94.77;37.83;;;7.70;99.90;;;;;;5080394;28;20308;-56
2021/12/15 08:55:33;;;;;;;66.17;35.27;;;7.70;99.90;;;;;;5057913;28;20296;-54
2021/12/15 08:58:05;;;;;;;94.33;35.70;;;7.70;99.90;;;;;;5054052;28;20613;-55
2021/12/15 09:00:33;;;;;;;192.15;54.33;;;7.70;99.90;;;;;;5069557;28;20458;-55
2021/12/15 09:03:02;;;;;;;76.10;36.53;;;8.00;99.90;;;;;;5063327;28;20666;-55
2021/12/15 09:05:31;;;;;;;96.83;38.87;;;7.90;99.90;;;;;;5067132;28;20243;-55
2021/12/15 09:08:01;;;;;;;61.20;35.03;;;7.90;99.90;;;;;;5073143;28;20682;-54
2021/12/15 09:10:32;;;;;;;101.87;39.63;;;7.90;99.90;;;;;;5093373;28;20240;-54
2021/12/15 09:13:01;;;;;;;154.60;43.43;;;7.80;99.90;;;;;;5093400;28;20262;-55
2021/12/15 09:15:29;;;;;;;93.13;37.17;;;7.80;99.90;;;;;;5093775;28;20306;-53
2021/12/15 09:17:57;;;;;;;66.73;33.73;;;7.80;99.90;;;;;;5093050;28;20311;-54
2021/12/15 09:20:31;;;;;;;155.77;45.10;;;7.90;99.90;;;;;;5093559;28;20223;-55
2021/12/15 09:23:01;;;;;;;116.70;38.93;;;7.90;99.90;;;;;;5089741;28;20260;-54
2021/12/15 09:25:30;;;;;;;129.20;40.63;;;7.90;99.90;;;;;;5092769;28;20236;-55
2021/12/15 09:27:58;;;;;;;74.73;36.30;;;7.90;99.90;;;;;;5093558;28;20196;-55
2021/12/15 09:30:29;;;;;;;91.80;39.47;;;7.80;99.90;;;;;;5092989;28;20216;-54
2021/12/15 09:32:58;;;;;;;67.07;34.10;;;7.90;99.90;;;;;;5093141;28;20243;-54
2021/12/15 09:35:31;;;;;;;106.60;40.20;;;7.90;99.90;;;;;;5093126;28;20232;-55
2021/12/15 09:38:00;;;;;;;57.07;32.27;;;7.90;99.90;;;;;;5093379;28;20228;-54
2021/12/15 09:40:28;;;;;;;53.57;30.87;;;8.00;99.90;;;;;;5093324;28;20258;-54
2021/12/15 09:42:56;;;;;;;60.50;32.63;;;8.10;99.90;;;;;;5093282;28;20327;-55
2021/12/15 09:45:37;;;;;;;62.63;33.53;;;8.00;99.90;;;;;;5092976;28;20235;-54
2021/12/15 10:02:25;;;;;;;51.90;28.00;;;8.20;99.90;;;;;;5092642;28;20228;-54
2021/12/15 10:05:04;;;;;;;42.13;25.53;;;8.20;99.90;;;;;;5092616;28;20208;-54
2021/12/15 10:10:44;;;;;;;47.90;26.47;;;8.40;99.90;;;;;;5072441;28;20244;-54
2021/12/15 10:19:17;;;;;;;42.70;25.10;;;8.50;99.90;;;;;;5079883;28;20238;-54
2021/12/15 10:22:05;;;;;;;40.53;24.40;;;8.50;99.90;;;;;;5092476;28;20600;-55
2021/12/15 10:24:45;;;;;;;40.07;25.90;;;8.50;99.90;;;;;;5092600;28;20236;-54
2021/12/15 10:27:15;;;;;;;37.07;24.17;;;8.50;99.90;;;;;;5092131;28;20328;-55
2021/12/15 10:30:01;;;;;;;47.50;26.53;;;8.50;99.90;;;;;;5073518;28;20252;-54
2021/12/15 10:32:31;;;;;;;50.33;28.27;;;8.60;99.90;;;;;;5073187;28;20261;-54
2021/12/15 10:35:01;;;;;;;42.23;26.50;;;8.60;99.90;;;;;;5092032;28;20704;-55
2021/12/15 10:37:29;;;;;;;49.67;27.30;;;8.60;99.90;;;;;;5091894;28;20310;-54
2021/12/15 10:40:22;;;;;;;38.50;24.30;;;8.60;99.90;;;;;;5091700;28;20363;-54
2021/12/15 10:43:02;;;;;;;44.80;24.77;;;8.60;99.90;;;;;;5091546;28;20259;-55
2021/12/15 10:45:36;;;;;;;38.83;23.90;;;8.60;99.90;;;;;;5091810;28;20246;-56
2021/12/15 10:48:09;;;;;;;45.53;25.37;;;8.60;99.90;;;;;;5092044;28;20236;-56
2021/12/15 10:50:39;;;;;;;41.13;24.50;;;8.50;99.90;;;;;;5091386;28;20623;-54
2021/12/15 10:53:07;;;;;;;44.00;25.30;;;8.40;99.90;;;;;;5091513;28;20255;-54
2021/12/15 10:55:39;;;;;;;37.43;23.50;;;8.30;99.90;;;;;;5091817;28;20242;-54
2021/12/15 10:58:36;;;;;;;46.03;26.00;;;8.40;99.90;;;;;;5092106;28;20217;-55
2021/12/15 11:01:33;;;;;;;48.57;26.00;;;8.50;99.90;;;;;;5071686;28;20205;-55
2021/12/15 11:04:02;;;;;;;47.47;27.47;;;8.50;99.90;;;;;;5084659;28;20212;-55
2021/12/15 11:06:33;;;;;;;43.17;23.80;;;8.50;99.90;;;;;;5091734;28;20265;-54
2021/12/15 11:09:12;;;;;;;40.80;24.37;;;8.40;99.90;;;;;;5078874;28;20614;-55
2021/12/15 11:11:59;;;;;;;49.83;26.67;;;8.50;99.90;;;;;;5071104;28;20219;-54
2021/12/15 11:14:30;;;;;;;38.40;23.67;;;8.50;99.90;;;;;;5080623;28;20642;-55
2021/12/15 11:17:11;;;;;;;52.73;26.67;;;8.40;99.90;;;;;;5091462;28;20231;-54
2021/12/15 11:19:43;;;;;;;38.70;23.17;;;8.40;99.90;;;;;;5091918;28;20236;-55
2021/12/15 11:22:48;;;;;;;44.37;25.10;;;8.40;99.90;;;;;;5080501;28;21051;-54
2021/12/15 11:25:36;;;;;;;47.17;24.73;;;8.40;99.90;;;;;;5087014;28;20232;-54
2021/12/15 11:28:13;;;;;;;48.50;25.87;;;8.50;99.90;;;;;;5083307;28;20572;-55
2021/12/15 11:30:44;;;;;;;35.33;21.43;;;8.40;99.90;;;;;;5091797;28;20235;-55
2021/12/15 11:33:16;;;;;;;36.10;21.43;;;8.40;99.90;;;;;;5090838;28;20230;-54
2021/12/15 11:35:47;;;;;;;47.63;24.90;;;8.40;99.90;;;;;;5091353;28;20303;-55
2021/12/15 11:38:19;;;;;;;40.20;22.93;;;8.50;99.90;;;;;;5090528;28;20629;-54
2021/12/15 11:40:51;;;;;;;35.90;22.87;;;8.50;99.90;;;;;;5091456;28;20287;-55
2021/12/15 11:43:48;;;;;;;45.67;25.10;;;8.60;99.90;;;;;;5090932;28;20256;-54
2021/12/15 11:46:21;;;;;;;43.57;23.07;;;8.60;99.90;;;;;;5091080;28;20913;-55
2021/12/15 11:48:51;;;;;;;40.63;23.43;;;8.50;99.90;;;;;;5090765;28;20188;-55
2021/12/15 11:51:34;;;;;;;44.70;24.57;;;8.50;99.90;;;;;;5090465;28;20261;-55
2021/12/15 11:54:03;;;;;;;34.83;21.97;;;8.50;99.90;;;;;;5094951;28;20247;-56
2021/12/15 11:56:34;;;;;;;41.67;23.97;;;8.50;99.90;;;;;;5095414;28;20253;-54
2021/12/15 11:59:18;;;;;;;35.20;22.00;;;8.60;99.90;;;;;;5094291;28;20219;-55
2021/12/15 12:01:53;;;;;;;33.60;20.00;;;8.60;99.90;;;;;;5095353;28;20224;-54
2021/12/15 12:04:28;;;;;;;37.97;22.07;;;8.60;99.90;;;;;;5094781;28;20261;-54
2021/12/15 12:07:11;;;;;;;44.53;23.73;;;8.60;99.90;;;;;;5095212;28;20727;-55
2021/12/15 12:09:42;;;;;;;37.93;23.20;;;8.50;99.90;;;;;;5079387;28;20246;-54
2021/12/15 12:12:12;;;;;;;41.37;22.73;;;8.60;99.90;;;;;;5094693;28;20944;-54
2021/12/15 12:14:43;;;;;;;40.60;23.43;;;8.60;99.90;;;;;;5081295;28;20251;-53
2021/12/15 12:17:15;;;;;;;35.50;21.13;;;8.60;99.90;;;;;;5092618;28;20694;-55
2021/12/15 12:19:50;;;;;;;38.10;23.50;;;8.60;99.90;;;;;;5095246;28;20609;-54
2021/12/15 12:22:20;;;;;;;52.30;28.47;;;8.60;99.90;;;;;;5095472;28;20291;-54
2021/12/15 12:24:50;;;;;;;70.90;33.63;;;8.60;99.90;;;;;;5090931;28;20204;-55
2021/12/15 12:27:20;;;;;;;55.63;31.70;;;8.60;99.90;;;;;;5084966;28;20243;-54
2021/12/15 12:29:51;;;;;;;57.63;34.50;;;8.60;99.90;;;;;;5102430;28;20700;-53
2021/12/15 12:32:19;;;;;;;45.00;27.90;;;8.70;99.90;;;;;;5096929;28;20232;-56
2021/12/15 12:34:48;;;;;;;43.73;26.00;;;8.70;99.90;;;;;;5101497;28;20217;-58
2021/12/15 12:37:17;;;;;;;43.93;25.23;;;8.70;99.90;;;;;;5094880;28;20243;-54
2021/12/15 12:39:53;;;;;;;44.30;26.03;;;8.70;99.90;;;;;;5094718;28;20242;-54
2021/12/15 12:42:33;;;;;;;37.53;23.13;;;8.70;99.90;;;;;;5095065;28;20224;-53
2021/12/15 12:45:21;;;;;;;47.87;26.50;;;8.60;99.90;;;;;;5088273;28;20731;-54
2021/12/15 12:48:14;;;;;;;40.23;24.47;;;8.70;99.90;;;;;;5093253;28;20228;-55
2021/12/15 12:59:37;;;;;;;46.50;26.43;;;8.60;99.90;;;;;;5085951;28;20304;-54
2021/12/15 13:02:38;;;;;;;54.37;28.93;;;8.60;99.90;;;;;;5072400;28;20308;-54
2021/12/15 13:05:25;;;;;;;40.53;24.53;;;8.60;99.90;;;;;;5072020;28;20665;-56
2021/12/15 13:07:56;;;;;;;41.53;25.13;;;8.60;99.90;;;;;;5072756;28;20208;-55
2021/12/15 13:11:15;;;;;;;43.37;24.53;;;8.60;99.90;;;;;;5089948;28;20221;-53
2021/12/15 13:14:04;;;;;;;44.70;25.13;;;8.60;99.90;;;;;;5028334;28;20270;-55
2021/12/15 13:16:38;;;;;;;47.27;25.93;;;8.60;99.90;;;;;;5090953;28;20238;-55
2021/12/15 13:19:17;;;;;;;47.43;26.97;;;8.60;99.90;;;;;;5071389;28;20231;-60
2021/12/15 13:21:57;;;;;;;54.53;30.40;;;8.60;99.90;;;;;;5076966;28;20274;-54
2021/12/15 13:30:36;;;;;;;54.33;29.17;;;8.60;99.90;;;;;;5092211;28;20759;-54
2021/12/15 13:33:12;;;;;;;58.67;28.53;;;8.60;99.90;;;;;;5091838;28;20255;-54
2021/12/15 13:35:51;;;;;;;49.30;27.73;;;8.60;99.90;;;;;;5092084;28;20283;-54
2021/12/15 13:38:32;;;;;;;39.27;25.77;;;8.60;99.90;;;;;;5091515;28;20208;-54
2021/12/15 13:41:13;;;;;;;55.07;28.90;;;8.50;99.90;;;;;;5092401;28;20219;-55
2021/12/15 13:46:44;;;;;;;41.60;25.47;;;8.60;99.90;;;;;;5108583;27;20548;-54
2021/12/15 13:49:28;;;;;;;39.17;25.47;;;8.60;99.90;;;;;;5108719;28;20199;-53
2021/12/15 13:52:04;;;;;;;45.70;27.73;;;8.60;99.90;;;;;;5108693;28;20250;-54
2021/12/15 13:54:58;;;;;;;43.53;26.00;;;8.60;99.90;;;;;;5108899;28;20672;-55
2021/12/15 13:57:30;;;;;;;40.40;28.35;;;8.60;99.90;;;;;;5107215;28;20456;-57
2021/12/15 14:00:10;;;;;;;39.60;26.03;;;8.90;99.90;;;;;;5108405;28;20302;-54
2021/12/15 14:02:41;;;;;;;43.90;26.07;;;8.70;99.90;;;;;;5108433;28;20257;-53
2021/12/15 14:05:23;;;;;;;48.83;26.53;;;8.70;99.90;;;;;;5108508;28;20212;-53
2021/12/15 14:07:53;;;;;;;43.13;25.20;;;8.60;99.90;;;;;;5108598;28;20203;-55
2021/12/15 14:11:01;;;;;;;44.90;26.63;;;8.60;99.90;;;;;;5108163;28;20254;-54
2021/12/15 14:13:49;;;;;;;47.47;26.80;;;8.50;99.90;;;;;;5105656;28;20303;-54
2021/12/15 14:16:50;;;;;;;58.53;29.07;;;8.50;99.90;;;;;;5108249;28;20204;-54